sensor_id;sensor_type;location;lat;lon;timestamp;pressure;altitude;pressure_sealevel;temperature;humidity
60719;BME280;46567;51.660;5.824;2023-05-19T00:02:03;133050.0;;;190.6;68.0
60719;BME280;46567;51.660;5.824;2023-05-19T00:07:04;133060.0;;;190.6;68.5
60719;BME280;46567;51.660;5.824;2023-05-19T00:12:03;133070.0;;;190.6;68.5
60719;BME280;46567;51.660;5.824;2023-05-19T00:17:03;133080.0;;;190.6;69.5
60719;BME280;46567;51.660;5.824;2023-05-19T00:27:03;133110.0;;;190.6;72.0
60719;BME280;46567;51.660;5.824;2023-05-19T00:32:04;133120.0;;;190.6;75.0
60719;BME280;46567;51.660;5.824;2023-05-19T00:37:03;133140.0;;;190.6;76.0
60719;BME280;46567;51.660;5.824;2023-05-19T00:42:03;133140.0;;;190.6;76.5
60719;BME280;46567;51.660;5.824;2023-05-19T00:47:03;133140.0;;;190.6;76.5
60719;BME280;46567;51.660;5.824;2023-05-19T00:52:05;133130.0;;;190.6;77.0
60719;BME280;46567;51.660;5.824;2023-05-19T00:57:03;133130.0;;;190.6;77.5
60719;BME280;46567;51.660;5.824;2023-05-19T01:02:03;133160.0;;;190.6;79.5
60719;BME280;46567;51.660;5.824;2023-05-19T01:07:04;133150.0;;;190.6;80.0
60719;BME280;46567;51.660;5.824;2023-05-19T01:12:03;133150.0;;;190.6;80.5
60719;BME280;46567;51.660;5.824;2023-05-19T01:17:08;133170.0;;;190.6;80.0
60719;BME280;46567;51.660;5.824;2023-05-19T01:23:06;133190.0;;;190.6;80.5
60719;BME280;46567;51.660;5.824;2023-05-19T01:29:07;133210.0;;;190.6;83.5
60719;BME280;46567;51.660;5.824;2023-05-19T01:32:05;133210.0;;;190.6;83.0
60719;BME280;46567;51.660;5.824;2023-05-19T01:37:04;133200.0;;;190.6;82.5
60719;BME280;46567;51.660;5.824;2023-05-19T01:42:04;133220.0;;;190.6;83.5
60719;BME280;46567;51.660;5.824;2023-05-19T01:47:04;133240.0;;;190.6;84.5
60719;BME280;46567;51.660;5.824;2023-05-19T01:52:03;133230.0;;;190.6;84.0
60719;BME280;46567;51.660;5.824;2023-05-19T01:57:14;133240.0;;;190.6;86.0
60719;BME280;46567;51.660;5.824;2023-05-19T02:02:19;133230.0;;;190.6;86.0
60719;BME280;46567;51.660;5.824;2023-05-19T02:07:16;133250.0;;;190.6;86.0
60719;BME280;46567;51.660;5.824;2023-05-19T02:12:10;133240.0;;;190.6;86.0
60719;BME280;46567;51.660;5.824;2023-05-19T02:17:04;133240.0;;;190.6;86.0
60719;BME280;46567;51.660;5.824;2023-05-19T02:22:03;133240.0;;;190.6;87.0
60719;BME280;46567;51.660;5.824;2023-05-19T02:27:04;133240.0;;;190.6;87.5
60719;BME280;46567;51.660;5.824;2023-05-19T02:32:04;133250.0;;;190.6;87.0
60719;BME280;46567;51.660;5.824;2023-05-19T02:37:03;133250.0;;;190.6;87.0
60719;BME280;46567;51.660;5.824;2023-05-19T02:42:03;133250.0;;;190.6;87.5
60719;BME280;46567;51.660;5.824;2023-05-19T02:47:03;133250.0;;;190.6;88.5
60719;BME280;46567;51.660;5.824;2023-05-19T02:52:04;133270.0;;;190.6;88.5
60719;BME280;46567;51.660;5.824;2023-05-19T02:57:03;133280.0;;;190.6;89.0
60719;BME280;46567;51.660;5.824;2023-05-19T03:02:03;133270.0;;;190.6;89.5
60719;BME280;46567;51.660;5.824;2023-05-19T03:07:03;133290.0;;;190.6;89.5
60719;BME280;46567;51.660;5.824;2023-05-19T03:12:04;133290.0;;;190.6;90.0
60719;BME280;46567;51.660;5.824;2023-05-19T03:17:03;133290.0;;;190.6;91.0
60719;BME280;46567;51.660;5.824;2023-05-19T03:22:03;133310.0;;;190.6;91.5
60719;BME280;46567;51.660;5.824;2023-05-19T03:27:03;133320.0;;;190.6;93.5
60719;BME280;46567;51.660;5.824;2023-05-19T03:32:04;133320.0;;;190.6;94.0
60719;BME280;46567;51.660;5.824;2023-05-19T03:37:03;133320.0;;;190.6;93.0
60719;BME280;46567;51.660;5.824;2023-05-19T03:42:03;133310.0;;;190.6;92.5
60719;BME280;46567;51.660;5.824;2023-05-19T03:47:03;133320.0;;;190.6;92.5
60719;BME280;46567;51.660;5.824;2023-05-19T03:52:03;133330.0;;;190.6;93.0
60719;BME280;46567;51.660;5.824;2023-05-19T03:57:03;133350.0;;;190.6;94.5
60719;BME280;46567;51.660;5.824;2023-05-19T04:02:03;133390.0;;;190.6;96.5
60719;BME280;46567;51.660;5.824;2023-05-19T04:07:03;133410.0;;;190.6;97.5
60719;BME280;46567;51.660;5.824;2023-05-19T04:12:04;133390.0;;;190.6;98.0
60719;BME280;46567;51.660;5.824;2023-05-19T04:17:03;133400.0;;;190.6;98.5
60719;BME280;46567;51.660;5.824;2023-05-19T04:22:03;133370.0;;;190.6;98.5
60719;BME280;46567;51.660;5.824;2023-05-19T04:27:04;133360.0;;;190.6;98.5
60719;BME280;46567;51.660;5.824;2023-05-19T04:32:04;133350.0;;;190.6;97.5
60719;BME280;46567;51.660;5.824;2023-05-19T04:37:03;133330.0;;;190.6;98.5
60719;BME280;46567;51.660;5.824;2023-05-19T04:42:03;133320.0;;;190.6;97.5
60719;BME280;46567;51.660;5.824;2023-05-19T04:47:03;133250.0;;;190.6;98.0
60719;BME280;46567;51.660;5.824;2023-05-19T04:52:04;133240.0;;;190.6;97.0
60719;BME280;46567;51.660;5.824;2023-05-19T04:57:04;133280.0;;;190.6;100.0
60719;BME280;46567;51.660;5.824;2023-05-19T05:02:03;133290.0;;;190.6;99.5
60719;BME280;46567;51.660;5.824;2023-05-19T05:07:03;133270.0;;;190.6;100.0
60719;BME280;46567;51.660;5.824;2023-05-19T05:12:03;133250.0;;;190.6;100.0
60719;BME280;46567;51.660;5.824;2023-05-19T05:17:03;133230.0;;;190.6;100.0
60719;BME280;46567;51.660;5.824;2023-05-19T05:22:04;133190.0;;;190.6;100.0
60719;BME280;46567;51.660;5.824;2023-05-19T05:27:03;133190.0;;;190.6;99.5
60719;BME280;46567;51.660;5.824;2023-05-19T05:32:04;133180.0;;;190.6;98.5
60719;BME280;46567;51.660;5.824;2023-05-19T05:37:03;133170.0;;;190.6;99.0
60719;BME280;46567;51.660;5.824;2023-05-19T05:42:03;133110.0;;;190.6;98.0
60719;BME280;46567;51.660;5.824;2023-05-19T05:47:04;133070.0;;;190.6;97.5
60719;BME280;46567;51.660;5.824;2023-05-19T05:52:04;133050.0;;;190.6;97.0
60719;BME280;46567;51.660;5.824;2023-05-19T05:57:03;133020.0;;;190.6;96.5
60719;BME280;46567;51.660;5.824;2023-05-19T06:02:03;132990.0;;;190.6;95.0
60719;BME280;46567;51.660;5.824;2023-05-19T06:07:03;132920.0;;;190.6;94.5
60719;BME280;46567;51.660;5.824;2023-05-19T06:12:04;132830.0;;;190.6;93.0
60719;BME280;46567;51.660;5.824;2023-05-19T06:17:03;132790.0;;;190.6;91.5
60719;BME280;46567;51.660;5.824;2023-05-19T06:22:03;132750.0;;;190.6;89.0
60719;BME280;46567;51.660;5.824;2023-05-19T06:27:03;132770.0;;;190.6;89.0
60719;BME280;46567;51.660;5.824;2023-05-19T06:32:03;132760.0;;;190.6;88.0
60719;BME280;46567;51.660;5.824;2023-05-19T06:37:03;132730.0;;;190.6;87.5
60719;BME280;46567;51.660;5.824;2023-05-19T06:42:03;132670.0;;;190.6;86.0
60719;BME280;46567;51.660;5.824;2023-05-19T06:47:03;132600.0;;;190.6;85.0
60719;BME280;46567;51.660;5.824;2023-05-19T06:52:04;132460.0;;;190.6;84.0
60719;BME280;46567;51.660;5.824;2023-05-19T06:57:03;132430.0;;;190.6;80.5
60719;BME280;46567;51.660;5.824;2023-05-19T07:02:03;132330.0;;;190.6;77.0
60719;BME280;46567;51.660;5.824;2023-05-19T07:07:03;132280.0;;;190.6;77.5
60719;BME280;46567;51.660;5.824;2023-05-19T07:12:03;132230.0;;;190.6;72.5
60719;BME280;46567;51.660;5.824;2023-05-19T07:17:03;132190.0;;;190.6;74.5
60719;BME280;46567;51.660;5.824;2023-05-19T07:22:03;132080.0;;;190.6;71.0
60719;BME280;46567;51.660;5.824;2023-05-19T07:27:04;132060.0;;;190.6;66.5
60719;BME280;46567;51.660;5.824;2023-05-19T07:32:04;132020.0;;;190.6;64.5
60719;BME280;46567;51.660;5.824;2023-05-19T07:37:03;131950.0;;;190.6;65.0
60719;BME280;46567;51.660;5.824;2023-05-19T07:42:04;131910.0;;;190.6;61.5
60719;BME280;46567;51.660;5.824;2023-05-19T07:47:04;131880.0;;;190.6;60.5
60719;BME280;46567;51.660;5.824;2023-05-19T07:52:04;131830.0;;;190.6;58.0
60719;BME280;46567;51.660;5.824;2023-05-19T07:57:04;131830.0;;;190.6;58.5
60719;BME280;46567;51.660;5.824;2023-05-19T08:02:04;131810.0;;;190.6;55.5
60719;BME280;46567;51.660;5.824;2023-05-19T08:07:03;131720.0;;;190.6;58.5
60719;BME280;46567;51.660;5.824;2023-05-19T08:12:03;131640.0;;;190.6;54.0
60719;BME280;46567;51.660;5.824;2023-05-19T08:17:03;131650.0;;;190.6;54.5
60719;BME280;46567;51.660;5.824;2023-05-19T08:22:03;131570.0;;;190.6;54.5
60719;BME280;46567;51.660;5.824;2023-05-19T08:27:03;131550.0;;;190.6;53.5
60719;BME280;46567;51.660;5.824;2023-05-19T08:32:03;131470.0;;;190.6;52.5
60719;BME280;46567;51.660;5.824;2023-05-19T08:37:03;131380.0;;;190.6;48.0
60719;BME280;46567;51.660;5.824;2023-05-19T08:42:04;131390.0;;;190.6;47.0
60719;BME280;46567;51.660;5.824;2023-05-19T08:47:03;131320.0;;;190.6;47.5
60719;BME280;46567;51.660;5.824;2023-05-19T08:52:16;131340.0;;;190.6;46.0
60719;BME280;46567;51.660;5.824;2023-05-19T08:57:04;131290.0;;;190.6;46.5
60719;BME280;46567;51.660;5.824;2023-05-19T09:02:03;131250.0;;;190.6;45.5
60719;BME280;46567;51.660;5.824;2023-05-19T09:07:04;131150.0;;;190.6;47.5
60719;BME280;46567;51.660;5.824;2023-05-19T09:12:04;131120.0;;;190.6;46.5
60719;BME280;46567;51.660;5.824;2023-05-19T09:17:04;131240.0;;;190.6;45.5
60719;BME280;46567;51.660;5.824;2023-05-19T09:22:04;131240.0;;;190.6;40.5
60719;BME280;46567;51.660;5.824;2023-05-19T09:27:03;131130.0;;;190.6;40.0
60719;BME280;46567;51.660;5.824;2023-05-19T09:32:05;131200.0;;;190.6;37.0
60719;BME280;46567;51.660;5.824;2023-05-19T09:37:03;131200.0;;;190.6;39.5
60719;BME280;46567;51.660;5.824;2023-05-19T09:42:05;131200.0;;;190.6;38.0
60719;BME280;46567;51.660;5.824;2023-05-19T09:47:03;131160.0;;;190.6;34.0
60719;BME280;46567;51.660;5.824;2023-05-19T09:52:04;131120.0;;;190.6;34.0
60719;BME280;46567;51.660;5.824;2023-05-19T09:57:04;131060.0;;;190.6;36.0
60719;BME280;46567;51.660;5.824;2023-05-19T10:02:03;131120.0;;;190.6;36.0
60719;BME280;46567;51.660;5.824;2023-05-19T10:07:04;131200.0;;;190.6;37.0
60719;BME280;46567;51.660;5.824;2023-05-19T10:12:04;131060.0;;;190.6;38.0
60719;BME280;46567;51.660;5.824;2023-05-19T10:17:03;131050.0;;;190.6;35.5
60719;BME280;46567;51.660;5.824;2023-05-19T10:22:03;131030.0;;;190.6;35.0
60719;BME280;46567;51.660;5.824;2023-05-19T10:27:05;130940.0;;;190.6;35.0
60719;BME280;46567;51.660;5.824;2023-05-19T10:32:07;130950.0;;;190.6;34.5
60719;BME280;46567;51.660;5.824;2023-05-19T10:37:49;130890.0;;;190.6;34.0
60719;BME280;46567;51.660;5.824;2023-05-19T10:42:14;130890.0;;;190.6;33.5
60719;BME280;46567;51.660;5.824;2023-05-19T10:47:04;130810.0;;;190.6;36.0
60719;BME280;46567;51.660;5.824;2023-05-19T10:52:17;130760.0;;;190.6;35.0
60719;BME280;46567;51.660;5.824;2023-05-19T10:57:04;130650.0;;;190.6;34.0
60719;BME280;46567;51.660;5.824;2023-05-19T11:02:04;130640.0;;;190.6;33.5
60719;BME280;46567;51.660;5.824;2023-05-19T11:07:03;130600.0;;;190.6;33.5
60719;BME280;46567;51.660;5.824;2023-05-19T11:12:03;130740.0;;;190.6;31.5
60719;BME280;46567;51.660;5.824;2023-05-19T11:17:11;130730.0;;;190.6;33.5
60719;BME280;46567;51.660;5.824;2023-05-19T11:22:11;130690.0;;;190.6;32.0
60719;BME280;46567;51.660;5.824;2023-05-19T11:27:21;130730.0;;;190.6;33.5
60719;BME280;46567;51.660;5.824;2023-05-19T11:32:04;130630.0;;;190.6;32.0
60719;BME280;46567;51.660;5.824;2023-05-19T11:37:04;130640.0;;;190.6;30.5
60719;BME280;46567;51.660;5.824;2023-05-19T11:42:04;130620.0;;;190.6;32.0
60719;BME280;46567;51.660;5.824;2023-05-19T11:47:04;130520.0;;;190.6;31.0
60719;BME280;46567;51.660;5.824;2023-05-19T11:52:04;130480.0;;;190.6;29.5
60719;BME280;46567;51.660;5.824;2023-05-19T11:57:04;130480.0;;;190.6;30.5
60719;BME280;46567;51.660;5.824;2023-05-19T12:02:15;130520.0;;;190.6;29.5
60719;BME280;46567;51.660;5.824;2023-05-19T12:07:03;130510.0;;;190.6;29.5
60719;BME280;46567;51.660;5.824;2023-05-19T12:12:04;130470.0;;;190.6;31.0
60719;BME280;46567;51.660;5.824;2023-05-19T12:17:08;130430.0;;;190.6;31.0
60719;BME280;46567;51.660;5.824;2023-05-19T12:22:03;130410.0;;;190.6;30.5
60719;BME280;46567;51.660;5.824;2023-05-19T12:27:03;130470.0;;;190.6;29.5
60719;BME280;46567;51.660;5.824;2023-05-19T12:32:04;130490.0;;;190.6;31.5
60719;BME280;46567;51.660;5.824;2023-05-19T12:37:04;130550.0;;;190.6;30.0
60719;BME280;46567;51.660;5.824;2023-05-19T12:42:06;130460.0;;;190.6;29.0
60719;BME280;46567;51.660;5.824;2023-05-19T12:47:04;130380.0;;;190.6;29.5
60719;BME280;46567;51.660;5.824;2023-05-19T12:52:04;130560.0;;;190.6;30.5
60719;BME280;46567;51.660;5.824;2023-05-19T12:57:04;130640.0;;;190.6;30.5
60719;BME280;46567;51.660;5.824;2023-05-19T13:02:03;130490.0;;;190.6;30.0
60719;BME280;46567;51.660;5.824;2023-05-19T13:07:04;130400.0;;;190.6;30.0
60719;BME280;46567;51.660;5.824;2023-05-19T13:12:04;130360.0;;;190.6;29.5
60719;BME280;46567;51.660;5.824;2023-05-19T13:17:03;130340.0;;;190.6;30.0
60719;BME280;46567;51.660;5.824;2023-05-19T13:22:03;130270.0;;;190.6;29.5
60719;BME280;46567;51.660;5.824;2023-05-19T13:27:03;130250.0;;;190.6;31.5
60719;BME280;46567;51.660;5.824;2023-05-19T13:32:04;130230.0;;;190.6;28.5
60719;BME280;46567;51.660;5.824;2023-05-19T13:37:03;130360.0;;;190.6;28.0
60719;BME280;46567;51.660;5.824;2023-05-19T13:42:03;130220.0;;;190.6;27.5
60719;BME280;46567;51.660;5.824;2023-05-19T13:47:03;130140.0;;;190.6;28.5
60719;BME280;46567;51.660;5.824;2023-05-19T13:52:04;130100.0;;;190.6;26.5
60719;BME280;46567;51.660;5.824;2023-05-19T13:57:04;130150.0;;;190.6;28.0
60719;BME280;46567;51.660;5.824;2023-05-19T14:02:03;130160.0;;;190.6;28.0
60719;BME280;46567;51.660;5.824;2023-05-19T14:07:04;130160.0;;;190.6;26.5
60719;BME280;46567;51.660;5.824;2023-05-19T14:12:04;130300.0;;;190.6;26.0
60719;BME280;46567;51.660;5.824;2023-05-19T14:17:04;130240.0;;;190.6;29.0
60719;BME280;46567;51.660;5.824;2023-05-19T14:27:03;130110.0;;;190.6;29.0
60719;BME280;46567;51.660;5.824;2023-05-19T14:32:04;130090.0;;;190.6;25.5
60719;BME280;46567;51.660;5.824;2023-05-19T14:37:04;130060.0;;;190.6;26.0
60719;BME280;46567;51.660;5.824;2023-05-19T14:42:04;130050.0;;;190.6;25.0
60719;BME280;46567;51.660;5.824;2023-05-19T14:47:04;130080.0;;;190.6;28.0
60719;BME280;46567;51.660;5.824;2023-05-19T14:52:03;130030.0;;;190.6;27.5
60719;BME280;46567;51.660;5.824;2023-05-19T14:57:04;130080.0;;;190.6;25.0
60719;BME280;46567;51.660;5.824;2023-05-19T15:02:04;130110.0;;;190.6;26.0
60719;BME280;46567;51.660;5.824;2023-05-19T15:07:04;130060.0;;;190.6;24.0
60719;BME280;46567;51.660;5.824;2023-05-19T15:12:04;129970.0;;;190.6;24.0
60719;BME280;46567;51.660;5.824;2023-05-19T15:17:04;130110.0;;;190.6;25.5
60719;BME280;46567;51.660;5.824;2023-05-19T15:22:04;130110.0;;;190.6;25.5
60719;BME280;46567;51.660;5.824;2023-05-19T15:27:04;130070.0;;;190.6;26.0
60719;BME280;46567;51.660;5.824;2023-05-19T15:32:04;129960.0;;;190.6;26.5
60719;BME280;46567;51.660;5.824;2023-05-19T15:37:04;129960.0;;;190.6;24.5
60719;BME280;46567;51.660;5.824;2023-05-19T15:42:04;129860.0;;;190.6;24.0
60719;BME280;46567;51.660;5.824;2023-05-19T15:47:04;129940.0;;;190.6;23.5
60719;BME280;46567;51.660;5.824;2023-05-19T15:52:04;129780.0;;;190.6;23.0
60719;BME280;46567;51.660;5.824;2023-05-19T15:57:04;129760.0;;;190.6;23.0
60719;BME280;46567;51.660;5.824;2023-05-19T16:02:04;129760.0;;;190.6;21.5
60719;BME280;46567;51.660;5.824;2023-05-19T16:07:04;129980.0;;;190.6;24.0
60719;BME280;46567;51.660;5.824;2023-05-19T16:12:04;130020.0;;;190.6;23.5
60719;BME280;46567;51.660;5.824;2023-05-19T16:17:04;130070.0;;;190.6;25.5
60719;BME280;46567;51.660;5.824;2023-05-19T16:22:04;130040.0;;;190.6;25.5
60719;BME280;46567;51.660;5.824;2023-05-19T16:27:04;129970.0;;;190.6;24.0
60719;BME280;46567;51.660;5.824;2023-05-19T16:32:04;129970.0;;;190.6;24.0
60719;BME280;46567;51.660;5.824;2023-05-19T16:37:04;129960.0;;;190.6;23.0
60719;BME280;46567;51.660;5.824;2023-05-19T16:42:04;129910.0;;;190.6;24.0
60719;BME280;46567;51.660;5.824;2023-05-19T16:47:04;129840.0;;;190.6;23.5
60719;BME280;46567;51.660;5.824;2023-05-19T16:52:04;129850.0;;;190.6;23.0
60719;BME280;46567;51.660;5.824;2023-05-19T16:57:04;129970.0;;;190.6;24.5
60719;BME280;46567;51.660;5.824;2023-05-19T17:02:04;130010.0;;;190.6;23.5
60719;BME280;46567;51.660;5.824;2023-05-19T17:07:04;129990.0;;;190.6;24.5
60719;BME280;46567;51.660;5.824;2023-05-19T17:12:04;130030.0;;;190.6;24.5
60719;BME280;46567;51.660;5.824;2023-05-19T17:17:04;130140.0;;;190.6;25.0
60719;BME280;46567;51.660;5.824;2023-05-19T17:22:04;130080.0;;;190.6;24.5
60719;BME280;46567;51.660;5.824;2023-05-19T17:27:04;130090.0;;;190.6;24.5
60719;BME280;46567;51.660;5.824;2023-05-19T17:32:04;130110.0;;;190.6;25.0
60719;BME280;46567;51.660;5.824;2023-05-19T17:37:04;130130.0;;;190.6;25.0
60719;BME280;46567;51.660;5.824;2023-05-19T17:42:04;130130.0;;;190.6;26.0
60719;BME280;46567;51.660;5.824;2023-05-19T17:47:04;130110.0;;;190.6;26.0
60719;BME280;46567;51.660;5.824;2023-05-19T17:52:04;130280.0;;;190.6;26.5
60719;BME280;46567;51.660;5.824;2023-05-19T17:57:10;130310.0;;;190.6;27.0
60719;BME280;46567;51.660;5.824;2023-05-19T18:02:04;130300.0;;;190.6;26.5
60719;BME280;46567;51.660;5.824;2023-05-19T18:07:05;130320.0;;;190.6;27.0
60719;BME280;46567;51.660;5.824;2023-05-19T18:12:04;130390.0;;;190.6;27.5
60719;BME280;46567;51.660;5.824;2023-05-19T18:17:04;130400.0;;;190.6;27.0
60719;BME280;46567;51.660;5.824;2023-05-19T18:22:04;130410.0;;;190.6;28.0
60719;BME280;46567;51.660;5.824;2023-05-19T18:27:04;130370.0;;;190.6;28.5
60719;BME280;46567;51.660;5.824;2023-05-19T18:32:04;130370.0;;;190.6;28.0
60719;BME280;46567;51.660;5.824;2023-05-19T19:37:04;131020.0;;;190.6;37.0
60719;BME280;46567;51.660;5.824;2023-05-19T19:42:04;131090.0;;;190.6;38.0
60719;BME280;46567;51.660;5.824;2023-05-19T19:47:04;131140.0;;;190.6;39.5
60719;BME280;46567;51.660;5.824;2023-05-19T19:52:04;131200.0;;;190.6;41.5
60719;BME280;46567;51.660;5.824;2023-05-19T19:57:04;131240.0;;;190.6;41.5
60719;BME280;46567;51.660;5.824;2023-05-19T20:02:04;131290.0;;;190.6;43.0
60719;BME280;46567;51.660;5.824;2023-05-19T20:07:04;131320.0;;;190.6;43.0
60719;BME280;46567;51.660;5.824;2023-05-19T20:12:04;131340.0;;;190.6;43.5
60719;BME280;46567;51.660;5.824;2023-05-19T20:17:04;131360.0;;;190.6;44.0
60719;BME280;46567;51.660;5.824;2023-05-19T20:22:04;131400.0;;;190.6;44.5
60719;BME280;46567;51.660;5.824;2023-05-19T20:27:04;131440.0;;;190.6;45.0
60719;BME280;46567;51.660;5.824;2023-05-19T20:32:04;131450.0;;;190.6;45.5
60719;BME280;46567;51.660;5.824;2023-05-19T20:37:04;131480.0;;;190.6;46.5
60719;BME280;46567;51.660;5.824;2023-05-19T20:42:04;131500.0;;;190.6;46.5
60719;BME280;46567;51.660;5.824;2023-05-19T20:47:04;131500.0;;;190.6;47.0
60719;BME280;46567;51.660;5.824;2023-05-19T20:52:04;131520.0;;;190.6;47.5
60719;BME280;46567;51.660;5.824;2023-05-19T20:57:04;131570.0;;;190.6;48.5
60719;BME280;46567;51.660;5.824;2023-05-19T21:02:04;131590.0;;;190.6;49.5
60719;BME280;46567;51.660;5.824;2023-05-19T21:07:04;131600.0;;;190.6;49.5
60719;BME280;46567;51.660;5.824;2023-05-19T21:12:04;131640.0;;;190.6;50.5
60719;BME280;46567;51.660;5.824;2023-05-19T21:17:04;131630.0;;;190.6;51.0
60719;BME280;46567;51.660;5.824;2023-05-19T21:22:04;131650.0;;;190.6;51.0
60719;BME280;46567;51.660;5.824;2023-05-19T21:27:04;131670.0;;;190.6;51.5
60719;BME280;46567;51.660;5.824;2023-05-19T21:32:04;131690.0;;;190.6;52.0
60719;BME280;46567;51.660;5.824;2023-05-19T21:37:04;131700.0;;;190.6;52.5
60719;BME280;46567;51.660;5.824;2023-05-19T21:42:04;131700.0;;;190.6;52.5
60719;BME280;46567;51.660;5.824;2023-05-19T21:47:04;131710.0;;;190.6;52.5
60719;BME280;46567;51.660;5.824;2023-05-19T21:52:04;131720.0;;;190.6;53.0
60719;BME280;46567;51.660;5.824;2023-05-19T21:57:04;131730.0;;;190.6;53.0
60719;BME280;46567;51.660;5.824;2023-05-19T22:02:04;131740.0;;;190.6;53.5
60719;BME280;46567;51.660;5.824;2023-05-19T22:07:04;131740.0;;;190.6;53.0
60719;BME280;46567;51.660;5.824;2023-05-19T22:12:04;131780.0;;;190.6;54.0
60719;BME280;46567;51.660;5.824;2023-05-19T22:17:04;131780.0;;;190.6;54.0
60719;BME280;46567;51.660;5.824;2023-05-19T22:22:04;131780.0;;;190.6;54.0
60719;BME280;46567;51.660;5.824;2023-05-19T22:27:06;131810.0;;;190.6;55.0
60719;BME280;46567;51.660;5.824;2023-05-19T22:32:04;131810.0;;;190.6;55.5
60719;BME280;46567;51.660;5.824;2023-05-19T22:37:04;131810.0;;;190.6;55.5
60719;BME280;46567;51.660;5.824;2023-05-19T22:42:04;131810.0;;;190.6;56.0
60719;BME280;46567;51.660;5.824;2023-05-19T22:47:04;131810.0;;;190.6;56.5
60719;BME280;46567;51.660;5.824;2023-05-19T22:52:04;131810.0;;;190.6;57.5
60719;BME280;46567;51.660;5.824;2023-05-19T22:57:04;131840.0;;;190.6;59.5
60719;BME280;46567;51.660;5.824;2023-05-19T23:02:04;131850.0;;;190.6;59.5
60719;BME280;46567;51.660;5.824;2023-05-19T23:07:04;131850.0;;;190.6;61.5
60719;BME280;46567;51.660;5.824;2023-05-19T23:12:04;131870.0;;;190.6;63.0
60719;BME280;46567;51.660;5.824;2023-05-19T23:17:04;131870.0;;;190.6;63.0
60719;BME280;46567;51.660;5.824;2023-05-19T23:22:04;131860.0;;;190.6;64.0
60719;BME280;46567;51.660;5.824;2023-05-19T23:27:04;131890.0;;;190.6;65.0
60719;BME280;46567;51.660;5.824;2023-05-19T23:32:04;131890.0;;;190.6;65.5
60719;BME280;46567;51.660;5.824;2023-05-19T23:37:04;131910.0;;;190.6;66.5
60719;BME280;46567;51.660;5.824;2023-05-19T23:42:04;131920.0;;;190.6;67.0
60719;BME280;46567;51.660;5.824;2023-05-19T23:47:04;131910.0;;;190.6;66.0
60719;BME280;46567;51.660;5.824;2023-05-19T23:52:04;131920.0;;;190.6;67.0
60719;BME280;46567;51.660;5.824;2023-05-19T23:57:04;131940.0;;;190.6;68.5
